sensor_id;sensor_type;location;lat;lon;timestamp;pressure;altitude;pressure_sealevel;temperature;humidity
81274;BME280;70753;47.908;11.274;2023-07-09T00:00:54;95242.66;;;23.46;52.42
81274;BME280;70753;47.908;11.274;2023-07-09T00:03:19;95241.06;;;23.45;52.62
81274;BME280;70753;47.908;11.274;2023-07-09T00:05:47;95238.88;;;23.35;52.75
81274;BME280;70753;47.908;11.274;2023-07-09T00:08:24;95246.25;;;23.35;52.75
81274;BME280;70753;47.908;11.274;2023-07-09T00:10:50;95238.50;;;23.21;53.01
81274;BME280;70753;47.908;11.274;2023-07-09T00:13:17;95237.53;;;23.29;53.04
81274;BME280;70753;47.908;11.274;2023-07-09T00:15:42;95253.75;;;23.26;53.22
81274;BME280;70753;47.908;11.274;2023-07-09T00:18:09;95247.28;;;23.15;53.61
81274;BME280;70753;47.908;11.274;2023-07-09T00:20:34;95250.16;;;23.06;53.71
81274;BME280;70753;47.908;11.274;2023-07-09T00:23:00;95250.59;;;23.08;54.00
81274;BME280;70753;47.908;11.274;2023-07-09T00:25:25;95255.31;;;23.11;54.00
81274;BME280;70753;47.908;11.274;2023-07-09T00:27:51;95252.63;;;23.11;53.53
81274;BME280;70753;47.908;11.274;2023-07-09T00:30:19;95257.59;;;23.09;54.07
81274;BME280;70753;47.908;11.274;2023-07-09T00:32:45;95260.94;;;23.03;54.12
81274;BME280;70753;47.908;11.274;2023-07-09T00:35:11;95256.09;;;22.96;54.30
81274;BME280;70753;47.908;11.274;2023-07-09T00:37:36;95251.47;;;22.97;54.79
81274;BME280;70753;47.908;11.274;2023-07-09T00:40:04;95253.13;;;23.01;54.43
81274;BME280;70753;47.908;11.274;2023-07-09T00:42:29;95260.78;;;22.96;54.57
81274;BME280;70753;47.908;11.274;2023-07-09T00:44:55;95260.41;;;22.97;54.63
81274;BME280;70753;47.908;11.274;2023-07-09T00:47:29;95265.22;;;22.88;55.32
81274;BME280;70753;47.908;11.274;2023-07-09T00:50:06;95260.56;;;22.88;55.09
81274;BME280;70753;47.908;11.274;2023-07-09T00:52:38;95268.38;;;22.90;55.90
81274;BME280;70753;47.908;11.274;2023-07-09T00:55:09;95268.28;;;22.86;55.81
81274;BME280;70753;47.908;11.274;2023-07-09T00:57:37;95268.91;;;22.80;56.07
81274;BME280;70753;47.908;11.274;2023-07-09T01:00:08;95274.78;;;22.82;56.36
81274;BME280;70753;47.908;11.274;2023-07-09T01:02:37;95275.72;;;22.74;57.09
81274;BME280;70753;47.908;11.274;2023-07-09T01:05:03;95270.09;;;22.67;56.98
81274;BME280;70753;47.908;11.274;2023-07-09T01:07:29;95267.00;;;22.68;57.31
81274;BME280;70753;47.908;11.274;2023-07-09T01:09:55;95269.13;;;22.75;57.18
81274;BME280;70753;47.908;11.274;2023-07-09T01:12:21;95280.38;;;22.73;57.24
81274;BME280;70753;47.908;11.274;2023-07-09T01:14:48;95271.22;;;22.66;57.09
81274;BME280;70753;47.908;11.274;2023-07-09T01:17:14;95278.03;;;22.60;57.55
81274;BME280;70753;47.908;11.274;2023-07-09T01:19:42;95283.22;;;22.65;57.61
81274;BME280;70753;47.908;11.274;2023-07-09T01:22:11;95281.63;;;22.64;57.32
81274;BME280;70753;47.908;11.274;2023-07-09T01:24:56;95288.44;;;22.58;57.90
81274;BME280;70753;47.908;11.274;2023-07-09T01:27:24;95287.47;;;22.50;58.36
81274;BME280;70753;47.908;11.274;2023-07-09T01:29:50;95289.06;;;22.39;58.43
81274;BME280;70753;47.908;11.274;2023-07-09T01:32:16;95287.63;;;22.30;58.53
81274;BME280;70753;47.908;11.274;2023-07-09T01:34:42;95284.16;;;22.17;59.32
81274;BME280;70753;47.908;11.274;2023-07-09T01:37:07;95285.25;;;22.28;58.93
81274;BME280;70753;47.908;11.274;2023-07-09T01:39:34;95289.22;;;22.31;58.94
81274;BME280;70753;47.908;11.274;2023-07-09T01:42:00;95286.72;;;22.26;58.83
81274;BME280;70753;47.908;11.274;2023-07-09T01:44:25;95286.28;;;22.24;58.26
81274;BME280;70753;47.908;11.274;2023-07-09T01:46:51;95280.19;;;22.14;58.46
81274;BME280;70753;47.908;11.274;2023-07-09T01:49:16;95283.84;;;22.06;58.08
81274;BME280;70753;47.908;11.274;2023-07-09T01:51:42;95289.16;;;22.03;58.33
81274;BME280;70753;47.908;11.274;2023-07-09T01:54:07;95283.94;;;22.10;57.92
81274;BME280;70753;47.908;11.274;2023-07-09T01:56:34;95287.88;;;22.12;57.29
81274;BME280;70753;47.908;11.274;2023-07-09T01:58:59;95283.38;;;22.04;58.07
81274;BME280;70753;47.908;11.274;2023-07-09T02:01:25;95285.88;;;21.97;58.50
81274;BME280;70753;47.908;11.274;2023-07-09T02:03:50;95280.34;;;21.94;58.11
81274;BME280;70753;47.908;11.274;2023-07-09T02:06:15;95291.56;;;21.92;57.94
81274;BME280;70753;47.908;11.274;2023-07-09T02:08:41;95288.16;;;21.95;57.80
81274;BME280;70753;47.908;11.274;2023-07-09T02:11:06;95287.91;;;21.88;57.94
81274;BME280;70753;47.908;11.274;2023-07-09T02:13:33;95285.09;;;21.97;56.79
81274;BME280;70753;47.908;11.274;2023-07-09T02:15:58;95285.78;;;21.94;56.97
81274;BME280;70753;47.908;11.274;2023-07-09T02:18:24;95289.63;;;21.93;56.49
81274;BME280;70753;47.908;11.274;2023-07-09T02:20:49;95294.94;;;21.89;57.10
81274;BME280;70753;47.908;11.274;2023-07-09T02:23:14;95300.16;;;21.82;56.93
81274;BME280;70753;47.908;11.274;2023-07-09T02:25:40;95297.75;;;21.81;57.04
81274;BME280;70753;47.908;11.274;2023-07-09T02:28:05;95293.44;;;21.80;56.55
81274;BME280;70753;47.908;11.274;2023-07-09T02:30:32;95303.09;;;21.77;56.55
81274;BME280;70753;47.908;11.274;2023-07-09T02:32:57;95303.09;;;21.77;56.32
81274;BME280;70753;47.908;11.274;2023-07-09T02:35:23;95302.94;;;21.74;56.76
81274;BME280;70753;47.908;11.274;2023-07-09T02:37:48;95305.44;;;21.79;56.26
81274;BME280;70753;47.908;11.274;2023-07-09T02:40:15;95307.72;;;21.77;56.39
81274;BME280;70753;47.908;11.274;2023-07-09T02:42:40;95309.84;;;21.71;56.26
81274;BME280;70753;47.908;11.274;2023-07-09T02:45:07;95306.69;;;21.69;56.27
81274;BME280;70753;47.908;11.274;2023-07-09T02:47:35;95305.56;;;21.70;56.03
81274;BME280;70753;47.908;11.274;2023-07-09T02:50:01;95306.13;;;21.64;56.07
81274;BME280;70753;47.908;11.274;2023-07-09T02:52:26;95302.63;;;21.63;56.28
81274;BME280;70753;47.908;11.274;2023-07-09T02:54:52;95310.06;;;21.54;56.52
81274;BME280;70753;47.908;11.274;2023-07-09T02:57:17;95312.56;;;21.59;56.67
81274;BME280;70753;47.908;11.274;2023-07-09T02:59:43;95305.34;;;21.51;56.55
81274;BME280;70753;47.908;11.274;2023-07-09T03:02:09;95301.03;;;21.62;55.85
81274;BME280;70753;47.908;11.274;2023-07-09T03:04:36;95311.09;;;21.62;55.93
81274;BME280;70753;47.908;11.274;2023-07-09T03:07:02;95314.84;;;21.57;56.02
81274;BME280;70753;47.908;11.274;2023-07-09T03:09:28;95307.81;;;21.56;55.96
81274;BME280;70753;47.908;11.274;2023-07-09T03:11:54;95317.44;;;21.54;56.38
81274;BME280;70753;47.908;11.274;2023-07-09T03:14:20;95320.56;;;21.44;56.72
81274;BME280;70753;47.908;11.274;2023-07-09T03:16:45;95321.38;;;21.44;56.81
81274;BME280;70753;47.908;11.274;2023-07-09T03:19:11;95314.13;;;21.36;56.57
81274;BME280;70753;47.908;11.274;2023-07-09T03:21:38;95321.03;;;21.33;56.53
81274;BME280;70753;47.908;11.274;2023-07-09T03:24:04;95319.31;;;21.29;56.90
81274;BME280;70753;47.908;11.274;2023-07-09T03:26:30;95322.38;;;21.27;56.63
81274;BME280;70753;47.908;11.274;2023-07-09T03:28:56;95325.44;;;21.26;56.60
81274;BME280;70753;47.908;11.274;2023-07-09T03:31:22;95327.44;;;21.17;57.00
81274;BME280;70753;47.908;11.274;2023-07-09T03:33:48;95321.47;;;21.23;56.43
81274;BME280;70753;47.908;11.274;2023-07-09T03:36:14;95327.00;;;21.15;57.04
81274;BME280;70753;47.908;11.274;2023-07-09T03:38:40;95327.66;;;21.24;56.84
81274;BME280;70753;47.908;11.274;2023-07-09T03:41:06;95322.38;;;21.27;56.79
81274;BME280;70753;47.908;11.274;2023-07-09T03:43:32;95333.78;;;21.21;57.26
81274;BME280;70753;47.908;11.274;2023-07-09T03:45:57;95330.72;;;21.22;57.08
81274;BME280;70753;47.908;11.274;2023-07-09T03:48:22;95325.19;;;21.19;57.21
81274;BME280;70753;47.908;11.274;2023-07-09T03:50:48;95334.44;;;21.18;57.08
81274;BME280;70753;47.908;11.274;2023-07-09T03:53:15;95332.63;;;21.22;57.16
81274;BME280;70753;47.908;11.274;2023-07-09T03:55:44;95322.94;;;21.33;56.83
81274;BME280;70753;47.908;11.274;2023-07-09T03:58:10;95334.25;;;21.35;56.57
81274;BME280;70753;47.908;11.274;2023-07-09T04:00:36;95339.00;;;21.38;56.47
81274;BME280;70753;47.908;11.274;2023-07-09T04:03:01;95329.63;;;21.35;56.78
81274;BME280;70753;47.908;11.274;2023-07-09T04:05:27;95334.03;;;21.40;56.58
81274;BME280;70753;47.908;11.274;2023-07-09T04:07:53;95330.06;;;21.37;57.09
81274;BME280;70753;47.908;11.274;2023-07-09T04:10:19;95338.31;;;21.41;56.88
81274;BME280;70753;47.908;11.274;2023-07-09T04:12:46;95337.66;;;21.44;56.52
81274;BME280;70753;47.908;11.274;2023-07-09T04:15:12;95327.47;;;21.41;57.04
81274;BME280;70753;47.908;11.274;2023-07-09T04:17:38;95337.53;;;21.41;57.28
81274;BME280;70753;47.908;11.274;2023-07-09T04:20:07;95332.22;;;21.44;57.30
81274;BME280;70753;47.908;11.274;2023-07-09T04:22:32;95340.16;;;21.49;57.01
81274;BME280;70753;47.908;11.274;2023-07-09T04:24:58;95338.81;;;21.55;57.28
81274;BME280;70753;47.908;11.274;2023-07-09T04:27:24;95341.06;;;21.53;57.29
81274;BME280;70753;47.908;11.274;2023-07-09T04:29:50;95339.16;;;21.66;56.81
81274;BME280;70753;47.908;11.274;2023-07-09T04:32:16;95338.59;;;21.60;57.30
81274;BME280;70753;47.908;11.274;2023-07-09T04:34:41;95348.53;;;21.68;57.30
81274;BME280;70753;47.908;11.274;2023-07-09T04:37:09;95344.00;;;21.72;57.46
81274;BME280;70753;47.908;11.274;2023-07-09T04:39:35;95343.59;;;21.82;56.82
81274;BME280;70753;47.908;11.274;2023-07-09T04:42:00;95349.25;;;21.89;57.31
81274;BME280;70753;47.908;11.274;2023-07-09T04:44:26;95348.31;;;21.97;57.44
81274;BME280;70753;47.908;11.274;2023-07-09T04:46:53;95355.25;;;22.07;57.28
81274;BME280;70753;47.908;11.274;2023-07-09T04:49:18;95352.28;;;22.12;56.81
81274;BME280;70753;47.908;11.274;2023-07-09T04:51:44;95350.34;;;22.25;57.18
81274;BME280;70753;47.908;11.274;2023-07-09T04:54:09;95354.41;;;22.31;56.83
81274;BME280;70753;47.908;11.274;2023-07-09T04:56:35;95356.19;;;22.39;57.14
81274;BME280;70753;47.908;11.274;2023-07-09T04:59:01;95355.72;;;22.49;56.26
81274;BME280;70753;47.908;11.274;2023-07-09T05:01:26;95353.72;;;22.34;56.50
81274;BME280;70753;47.908;11.274;2023-07-09T05:03:54;95355.63;;;22.45;55.84
81274;BME280;70753;47.908;11.274;2023-07-09T05:06:19;95353.66;;;22.18;55.90
81274;BME280;70753;47.908;11.274;2023-07-09T05:08:44;95365.84;;;22.24;56.51
81274;BME280;70753;47.908;11.274;2023-07-09T05:11:10;95352.03;;;22.29;56.94
81274;BME280;70753;47.908;11.274;2023-07-09T05:13:35;95361.03;;;22.69;55.06
81274;BME280;70753;47.908;11.274;2023-07-09T05:16:00;95357.09;;;22.43;55.00
81274;BME280;70753;47.908;11.274;2023-07-09T05:18:26;95360.16;;;22.29;56.29
81274;BME280;70753;47.908;11.274;2023-07-09T05:20:52;95359.25;;;22.89;53.92
81274;BME280;70753;47.908;11.274;2023-07-09T05:23:19;95355.44;;;23.06;54.96
81274;BME280;70753;47.908;11.274;2023-07-09T05:25:44;95354.78;;;23.24;54.24
81274;BME280;70753;47.908;11.274;2023-07-09T05:28:09;95359.84;;;23.38;53.28
81274;BME280;70753;47.908;11.274;2023-07-09T05:30:35;95358.53;;;23.47;53.62
81274;BME280;70753;47.908;11.274;2023-07-09T05:33:00;95348.34;;;23.44;53.71
81274;BME280;70753;47.908;11.274;2023-07-09T05:35:27;95351.63;;;23.22;53.33
81274;BME280;70753;47.908;11.274;2023-07-09T05:37:54;95355.19;;;23.38;54.18
81274;BME280;70753;47.908;11.274;2023-07-09T05:40:20;95359.94;;;23.14;55.53
81274;BME280;70753;47.908;11.274;2023-07-09T05:42:46;95366.53;;;23.40;55.96
81274;BME280;70753;47.908;11.274;2023-07-09T05:45:11;95354.47;;;23.41;55.55
81274;BME280;70753;47.908;11.274;2023-07-09T05:47:36;95358.97;;;23.81;55.67
81274;BME280;70753;47.908;11.274;2023-07-09T05:50:02;95357.84;;;24.13;54.73
81274;BME280;70753;47.908;11.274;2023-07-09T05:52:28;95362.44;;;24.44;53.81
81274;BME280;70753;47.908;11.274;2023-07-09T05:54:56;95368.41;;;24.68;53.23
81274;BME280;70753;47.908;11.274;2023-07-09T05:57:21;95362.94;;;24.84;52.63
81274;BME280;70753;47.908;11.274;2023-07-09T05:59:47;95368.47;;;24.02;53.63
81274;BME280;70753;47.908;11.274;2023-07-09T06:02:14;95368.56;;;23.75;54.32
81274;BME280;70753;47.908;11.274;2023-07-09T06:04:40;95363.13;;;24.06;54.00
81274;BME280;70753;47.908;11.274;2023-07-09T06:07:05;95364.56;;;24.03;54.22
81274;BME280;70753;47.908;11.274;2023-07-09T06:09:31;95361.47;;;24.36;53.59
81274;BME280;70753;47.908;11.274;2023-07-09T06:11:58;95361.09;;;24.72;52.69
81274;BME280;70753;47.908;11.274;2023-07-09T06:14:25;95360.84;;;24.77;52.49
81274;BME280;70753;47.908;11.274;2023-07-09T06:16:50;95359.72;;;24.97;52.12
81274;BME280;70753;47.908;11.274;2023-07-09T06:19:15;95360.69;;;25.08;51.88
81274;BME280;70753;47.908;11.274;2023-07-09T06:21:41;95363.78;;;25.45;52.05
81274;BME280;70753;47.908;11.274;2023-07-09T06:24:07;95364.81;;;25.60;52.47
81274;BME280;70753;47.908;11.274;2023-07-09T06:26:33;95365.06;;;25.74;52.28
81274;BME280;70753;47.908;11.274;2023-07-09T06:29:00;95360.66;;;25.92;52.29
81274;BME280;70753;47.908;11.274;2023-07-09T06:31:25;95362.38;;;26.00;51.97
81274;BME280;70753;47.908;11.274;2023-07-09T06:33:51;95366.84;;;26.08;52.39
81274;BME280;70753;47.908;11.274;2023-07-09T06:36:17;95362.75;;;26.21;52.80
81274;BME280;70753;47.908;11.274;2023-07-09T06:38:43;95372.16;;;26.24;52.67
81274;BME280;70753;47.908;11.274;2023-07-09T06:41:09;95365.94;;;26.27;52.30
81274;BME280;70753;47.908;11.274;2023-07-09T06:43:34;95370.66;;;25.81;52.54
81274;BME280;70753;47.908;11.274;2023-07-09T06:46:01;95369.81;;;25.77;52.37
81274;BME280;70753;47.908;11.274;2023-07-09T06:48:28;95371.09;;;25.22;53.82
81274;BME280;70753;47.908;11.274;2023-07-09T06:50:55;95373.31;;;25.55;52.96
81274;BME280;70753;47.908;11.274;2023-07-09T06:53:21;95375.56;;;25.95;51.86
81274;BME280;70753;47.908;11.274;2023-07-09T06:55:47;95375.50;;;25.91;51.64
81274;BME280;70753;47.908;11.274;2023-07-09T06:58:12;95376.84;;;26.23;50.85
81274;BME280;70753;47.908;11.274;2023-07-09T07:00:40;95367.72;;;26.16;50.50
81274;BME280;70753;47.908;11.274;2023-07-09T07:03:09;95377.91;;;26.41;49.46
81274;BME280;70753;47.908;11.274;2023-07-09T07:05:35;95371.03;;;26.54;49.19
81274;BME280;70753;47.908;11.274;2023-07-09T07:08:00;95372.47;;;26.71;49.24
81274;BME280;70753;47.908;11.274;2023-07-09T07:10:26;95375.25;;;26.75;48.79
81274;BME280;70753;47.908;11.274;2023-07-09T07:12:51;95366.13;;;26.93;48.05
81274;BME280;70753;47.908;11.274;2023-07-09T07:15:18;95371.69;;;27.00;47.76
81274;BME280;70753;47.908;11.274;2023-07-09T07:17:43;95367.94;;;27.15;47.45
81274;BME280;70753;47.908;11.274;2023-07-09T07:20:12;95373.22;;;27.31;47.06
81274;BME280;70753;47.908;11.274;2023-07-09T07:22:38;95372.41;;;27.27;46.71
81274;BME280;70753;47.908;11.274;2023-07-09T07:25:04;95375.53;;;26.96;47.81
81274;BME280;70753;47.908;11.274;2023-07-09T07:27:30;95366.84;;;27.20;47.33
81274;BME280;70753;47.908;11.274;2023-07-09T07:29:55;95369.72;;;27.34;46.62
81274;BME280;70753;47.908;11.274;2023-07-09T07:32:21;95361.28;;;27.46;46.45
81274;BME280;70753;47.908;11.274;2023-07-09T07:34:47;95366.50;;;27.58;45.75
81274;BME280;70753;47.908;11.274;2023-07-09T07:37:13;95364.25;;;27.67;46.08
81274;BME280;70753;47.908;11.274;2023-07-09T07:39:39;95357.72;;;27.82;45.37
81274;BME280;70753;47.908;11.274;2023-07-09T07:42:05;95356.22;;;27.92;44.94
81274;BME280;70753;47.908;11.274;2023-07-09T07:44:30;95359.00;;;27.95;44.69
81274;BME280;70753;47.908;11.274;2023-07-09T07:46:56;95363.41;;;28.00;44.55
81274;BME280;70753;47.908;11.274;2023-07-09T07:49:21;95357.19;;;28.06;44.28
81274;BME280;70753;47.908;11.274;2023-07-09T07:51:46;95355.28;;;28.18;43.36
81274;BME280;70753;47.908;11.274;2023-07-09T07:54:13;95351.97;;;27.54;44.83
81274;BME280;70753;47.908;11.274;2023-07-09T07:56:39;95357.72;;;27.82;45.22
81274;BME280;70753;47.908;11.274;2023-07-09T07:59:04;95355.53;;;27.98;44.67
81274;BME280;70753;47.908;11.274;2023-07-09T08:01:30;95353.72;;;28.13;43.56
81274;BME280;70753;47.908;11.274;2023-07-09T08:03:55;95349.50;;;28.30;42.44
81274;BME280;70753;47.908;11.274;2023-07-09T08:06:21;95342.56;;;28.46;41.76
81274;BME280;70753;47.908;11.274;2023-07-09T08:08:47;95342.69;;;28.60;42.40
81274;BME280;70753;47.908;11.274;2023-07-09T08:11:14;95344.34;;;28.79;41.80
81274;BME280;70753;47.908;11.274;2023-07-09T08:13:39;95341.97;;;28.74;41.04
81274;BME280;70753;47.908;11.274;2023-07-09T08:16:06;95327.91;;;28.86;40.89
81274;BME280;70753;47.908;11.274;2023-07-09T08:18:31;95338.56;;;29.02;39.24
81274;BME280;70753;47.908;11.274;2023-07-09T08:20:58;95335.91;;;29.16;36.54
81274;BME280;70753;47.908;11.274;2023-07-09T08:23:23;95341.44;;;29.26;37.20
81274;BME280;70753;47.908;11.274;2023-07-09T08:25:52;95338.72;;;29.37;35.98
81274;BME280;70753;47.908;11.274;2023-07-09T08:28:19;95335.19;;;29.43;35.20
81274;BME280;70753;47.908;11.274;2023-07-09T08:30:45;95324.22;;;29.65;35.22
81274;BME280;70753;47.908;11.274;2023-07-09T08:33:10;95330.13;;;29.67;34.34
81274;BME280;70753;47.908;11.274;2023-07-09T08:35:36;95324.25;;;29.79;34.06
81274;BME280;70753;47.908;11.274;2023-07-09T08:38:01;95322.31;;;29.79;33.22
81274;BME280;70753;47.908;11.274;2023-07-09T08:40:27;95317.22;;;29.85;33.76
81274;BME280;70753;47.908;11.274;2023-07-09T08:42:56;95326.63;;;29.87;34.41
81274;BME280;70753;47.908;11.274;2023-07-09T08:45:34;95325.06;;;29.97;34.44
81274;BME280;70753;47.908;11.274;2023-07-09T08:48:09;95322.31;;;30.00;35.17
81274;BME280;70753;47.908;11.274;2023-07-09T08:50:40;95315.66;;;29.91;32.86
81274;BME280;70753;47.908;11.274;2023-07-09T08:53:10;95320.34;;;29.87;33.57
81274;BME280;70753;47.908;11.274;2023-07-09T08:55:41;95318.41;;;29.98;33.41
81274;BME280;70753;47.908;11.274;2023-07-09T08:58:14;95318.38;;;30.05;30.75
81274;BME280;70753;47.908;11.274;2023-07-09T09:00:47;95324.28;;;30.03;30.18
81274;BME280;70753;47.908;11.274;2023-07-09T09:03:26;95323.88;;;29.84;31.01
81274;BME280;70753;47.908;11.274;2023-07-09T09:05:53;95329.00;;;30.03;31.29
81274;BME280;70753;47.908;11.274;2023-07-09T09:08:29;95329.75;;;30.24;31.56
81274;BME280;70753;47.908;11.274;2023-07-09T09:11:07;95325.84;;;30.36;31.00
81274;BME280;70753;47.908;11.274;2023-07-09T09:13:36;95327.03;;;30.39;32.04
81274;BME280;70753;47.908;11.274;2023-07-09T09:16:06;95335.28;;;30.03;31.36
81274;BME280;70753;47.908;11.274;2023-07-09T09:18:39;95327.41;;;30.37;32.26
81274;BME280;70753;47.908;11.274;2023-07-09T09:21:11;95328.16;;;30.59;31.35
81274;BME280;70753;47.908;11.274;2023-07-09T09:23:44;95324.22;;;30.70;32.12
81274;BME280;70753;47.908;11.274;2023-07-09T09:26:17;95326.56;;;30.65;31.54
81274;BME280;70753;47.908;11.274;2023-07-09T09:28:43;95323.50;;;30.38;32.70
81274;BME280;70753;47.908;11.274;2023-07-09T09:31:11;95331.28;;;30.68;33.32
81274;BME280;70753;47.908;11.274;2023-07-09T09:33:37;95332.84;;;30.79;31.46
81274;BME280;70753;47.908;11.274;2023-07-09T09:36:05;95329.69;;;30.88;32.02
81274;BME280;70753;47.908;11.274;2023-07-09T09:38:35;95325.66;;;31.10;31.50
81274;BME280;70753;47.908;11.274;2023-07-09T09:41:01;95329.56;;;31.13;31.46
81274;BME280;70753;47.908;11.274;2023-07-09T09:43:32;95326.56;;;30.86;29.22
81274;BME280;70753;47.908;11.274;2023-07-09T09:45:59;95328.44;;;31.07;29.27
81274;BME280;70753;47.908;11.274;2023-07-09T09:48:29;95331.09;;;31.21;27.61
81274;BME280;70753;47.908;11.274;2023-07-09T09:50:55;95326.31;;;31.32;27.68
81274;BME280;70753;47.908;11.274;2023-07-09T09:53:22;95329.59;;;31.05;28.79
81274;BME280;70753;47.908;11.274;2023-07-09T09:55:48;95314.72;;;30.78;28.74
81274;BME280;70753;47.908;11.274;2023-07-09T09:58:17;95328.84;;;31.05;27.95
81274;BME280;70753;47.908;11.274;2023-07-09T10:00:48;95328.34;;;31.21;28.81
81274;BME280;70753;47.908;11.274;2023-07-09T10:03:14;95324.38;;;31.32;27.98
81274;BME280;70753;47.908;11.274;2023-07-09T10:05:43;95325.69;;;31.07;28.06
81274;BME280;70753;47.908;11.274;2023-07-09T10:08:20;95323.66;;;31.18;29.72
81274;BME280;70753;47.908;11.274;2023-07-09T10:10:52;95327.91;;;31.33;28.69
81274;BME280;70753;47.908;11.274;2023-07-09T10:13:21;95324.69;;;31.52;29.78
81274;BME280;70753;47.908;11.274;2023-07-09T10:16:03;95324.53;;;31.73;26.86
81274;BME280;70753;47.908;11.274;2023-07-09T10:18:32;95319.69;;;31.91;26.65
81274;BME280;70753;47.908;11.274;2023-07-09T10:21:07;95321.88;;;32.14;25.86
81274;BME280;70753;47.908;11.274;2023-07-09T10:23:39;95319.25;;;31.96;24.24
81274;BME280;70753;47.908;11.274;2023-07-09T10:26:13;95313.47;;;32.28;25.53
81274;BME280;70753;47.908;11.274;2023-07-09T10:29:07;95323.06;;;32.57;24.52
81274;BME280;70753;47.908;11.274;2023-07-09T10:31:41;95319.44;;;33.01;24.81
81274;BME280;70753;47.908;11.274;2023-07-09T10:34:18;95318.34;;;33.55;23.81
81274;BME280;70753;47.908;11.274;2023-07-09T10:37:03;95313.44;;;33.93;22.37
81274;BME280;70753;47.908;11.274;2023-07-09T10:39:33;95320.63;;;34.37;22.43
81274;BME280;70753;47.908;11.274;2023-07-09T10:42:04;95316.50;;;34.91;21.25
81274;BME280;70753;47.908;11.274;2023-07-09T10:44:35;95311.75;;;35.67;21.22
81274;BME280;70753;47.908;11.274;2023-07-09T10:47:04;95310.94;;;36.34;21.51
81274;BME280;70753;47.908;11.274;2023-07-09T10:49:34;95310.75;;;36.41;20.20
81274;BME280;70753;47.908;11.274;2023-07-09T10:52:05;95303.50;;;36.76;18.22
81274;BME280;70753;47.908;11.274;2023-07-09T10:54:34;95309.47;;;37.98;19.16
81274;BME280;70753;47.908;11.274;2023-07-09T10:57:08;95294.75;;;38.35;18.31
81274;BME280;70753;47.908;11.274;2023-07-09T10:59:39;95302.44;;;37.94;18.23
81274;BME280;70753;47.908;11.274;2023-07-09T11:02:15;95299.03;;;38.49;19.13
81274;BME280;70753;47.908;11.274;2023-07-09T11:04:47;95299.13;;;39.97;15.75
81274;BME280;70753;47.908;11.274;2023-07-09T11:07:19;95293.28;;;40.98;17.37
81274;BME280;70753;47.908;11.274;2023-07-09T11:09:48;95288.81;;;41.79;16.27
81274;BME280;70753;47.908;11.274;2023-07-09T11:12:18;95290.88;;;42.02;15.37
81274;BME280;70753;47.908;11.274;2023-07-09T11:14:49;95293.09;;;40.47;15.16
81274;BME280;70753;47.908;11.274;2023-07-09T11:17:18;95289.47;;;41.65;16.08
81274;BME280;70753;47.908;11.274;2023-07-09T11:19:45;95284.75;;;41.80;16.06
81274;BME280;70753;47.908;11.274;2023-07-09T11:22:17;95282.28;;;42.38;15.43
81274;BME280;70753;47.908;11.274;2023-07-09T11:24:46;95288.84;;;43.21;13.38
81274;BME280;70753;47.908;11.274;2023-07-09T11:27:17;95284.47;;;44.22;13.06
81274;BME280;70753;47.908;11.274;2023-07-09T11:29:45;95279.28;;;45.16;10.96
81274;BME280;70753;47.908;11.274;2023-07-09T11:32:18;95281.25;;;42.98;13.26
81274;BME280;70753;47.908;11.274;2023-07-09T11:34:45;95276.97;;;44.74;11.30
81274;BME280;70753;47.908;11.274;2023-07-09T11:37:12;95273.13;;;44.16;11.23
81274;BME280;70753;47.908;11.274;2023-07-09T11:39:44;95271.34;;;44.94;10.30
81274;BME280;70753;47.908;11.274;2023-07-09T11:42:25;95268.53;;;45.66;11.46
81274;BME280;70753;47.908;11.274;2023-07-09T11:44:56;95266.28;;;47.02;9.94
81274;BME280;70753;47.908;11.274;2023-07-09T11:47:25;95260.56;;;45.38;9.96
81274;BME280;70753;47.908;11.274;2023-07-09T11:49:54;95254.78;;;45.79;10.91
81274;BME280;70753;47.908;11.274;2023-07-09T11:52:26;95257.13;;;45.86;10.88
81274;BME280;70753;47.908;11.274;2023-07-09T11:54:54;95251.84;;;42.93;14.06
81274;BME280;70753;47.908;11.274;2023-07-09T11:57:20;95236.78;;;42.43;13.46
81274;BME280;70753;47.908;11.274;2023-07-09T11:59:46;95244.13;;;43.47;13.11
81274;BME280;70753;47.908;11.274;2023-07-09T12:02:16;95244.81;;;42.27;13.79
81274;BME280;70753;47.908;11.274;2023-07-09T12:04:42;95239.66;;;43.11;14.26
81274;BME280;70753;47.908;11.274;2023-07-09T12:07:12;95232.78;;;42.97;14.31
81274;BME280;70753;47.908;11.274;2023-07-09T12:09:41;95233.72;;;41.07;15.32
81274;BME280;70753;47.908;11.274;2023-07-09T12:12:18;95229.59;;;40.84;15.09
81274;BME280;70753;47.908;11.274;2023-07-09T12:14:44;95236.38;;;39.71;18.27
81274;BME280;70753;47.908;11.274;2023-07-09T12:17:09;95227.94;;;40.02;16.60
81274;BME280;70753;47.908;11.274;2023-07-09T12:19:35;95231.91;;;38.99;17.71
81274;BME280;70753;47.908;11.274;2023-07-09T12:22:01;95233.44;;;38.91;18.53
81274;BME280;70753;47.908;11.274;2023-07-09T12:24:36;95233.44;;;38.35;18.06
81274;BME280;70753;47.908;11.274;2023-07-09T12:27:14;95234.31;;;38.32;17.69
81274;BME280;70753;47.908;11.274;2023-07-09T12:29:43;95238.94;;;37.89;18.40
81274;BME280;70753;47.908;11.274;2023-07-09T12:32:12;95236.13;;;38.26;18.49
81274;BME280;70753;47.908;11.274;2023-07-09T12:34:38;95225.34;;;38.50;17.86
81274;BME280;70753;47.908;11.274;2023-07-09T12:37:04;95225.66;;;38.52;18.18
81274;BME280;70753;47.908;11.274;2023-07-09T12:39:31;95222.19;;;38.26;18.43
81274;BME280;70753;47.908;11.274;2023-07-09T12:42:00;95207.09;;;37.77;18.73
81274;BME280;70753;47.908;11.274;2023-07-09T12:44:35;95204.38;;;38.11;19.21
81274;BME280;70753;47.908;11.274;2023-07-09T12:47:03;95202.09;;;37.85;19.34
81274;BME280;70753;47.908;11.274;2023-07-09T12:49:30;95198.28;;;37.91;18.89
81274;BME280;70753;47.908;11.274;2023-07-09T12:51:57;95199.63;;;37.74;19.48